Tucson, AZ

5:32 AM MST on December 18, 2014 (GMT -0700)
UA WRRC WEATHER | Change Station
CLOSE
Current Station
Personal Weather Station
Location: Tucson, AZ
Elevation: 2431 ft
Nearby Weather Stations

Elev 2431 ft 32.23 °N, 110.94 °W | Updated 15 minutes ago

Overcast
Overcast
47.6 °F
Feels Like 48 °F
N
0.0
Wind Variable Wind from NE
Gusts 1.0 mph

Today
High -- | Low -- °F
--% Chance of Precip.
Yesterday
High -- | Low -- °F
Precip. -- in
7:19 AM 5:21 PM
Waning Crescent, 15% visible
Pressure 30.07 in
Visibility 10.0 miles
Clouds Mostly Cloudy 5500 ft
Windchill 48 °F
Dew Point 47 °F
Humidity 97%
Rainfall 0.00 in
Snow Depth Not available.
UV 0 out of 12
Pollen 4.70 out of 12
Air Quality Not available.
Flu Activity Not available.
METAR KDMA 181158Z AUTO 00000KT 10SM BKN055 08/08 A3010 RMK AO2 SLP181 70056 T00840084 10088 20077 58004 $

More Conditions Fewer Conditions

Pressure 30.07 in
Visibility 10.0 miles
Clouds Mostly Cloudy 5500 ft
Windchill 48 °F
Dew Point 47 °F
Humidity 97%
Rainfall 0.00 in
Snow Depth Not available.
UV 0 out of 12
Pollen 4.70 out of 12
Air Quality Not available.
Flu Activity Not available.
METAR KDMA 181158Z AUTO 00000KT 10SM BKN055 08/08 A3010 RMK AO2 SLP181 70056 T00840084 10088 20077 58004 $

More Conditions Fewer Conditions

Nowcast | as of 3:54 am MST on December 18, 2014

A line of showers will move from west to east across much of Pinal County and northern sections of Pima County through 530 am. These showers should produce rain amounts around a tenth or two...with snow amounts of 1 to 2 inches in the Galiuro Mountains. Skies are expected to become partly cloudy just after sunrise this morning.

×

10-Day Weather Forecast

Almanac

Astronomy

Dec. 18, 2014 Rise Set
Actual Time
Civil Twilight
Nautical Twilight
Astronomical Twilight
Moon
Length of Visible Light
Length of Day
Tomorrow will be .
, % of the Moon is Illuminated

Today's Extremes

State Highs State Lows

Community

WunderPhotos

Upload Photos

1,778,923 photos uploaded!

WunderBlogs® & News

Nearby

Air Quality

  Air Quality AQ Index Pollutant
Not available.

Snow Depth

Station Depth Elevation

Earthquake Activity

City Distance Mag. Time & Date
Minimum magnitude displayed is 2.5.

Coastal Water Temperatures

Place Temperature

Nearby Weather Stations